sensor_id;sensor_type;location;lat;lon;timestamp;P1;durP1;ratioP1;P2;durP2;ratioP2
22851;SDS011;11592;45.460;9.240;2023-02-24T00:01:50;108.05;;;45.78;;
22851;SDS011;11592;45.460;9.240;2023-02-24T00:04:40;89.78;;;42.38;;
22851;SDS011;11592;45.460;9.240;2023-02-24T00:07:07;96.97;;;44.97;;
22851;SDS011;11592;45.460;9.240;2023-02-24T00:09:36;102.85;;;45.53;;
22851;SDS011;11592;45.460;9.240;2023-02-24T00:12:07;93.00;;;44.92;;
22851;SDS011;11592;45.460;9.240;2023-02-24T00:14:37;106.93;;;48.50;;
22851;SDS011;11592;45.460;9.240;2023-02-24T00:17:06;99.45;;;47.47;;
22851;SDS011;11592;45.460;9.240;2023-02-24T00:19:33;101.90;;;45.47;;
22851;SDS011;11592;45.460;9.240;2023-02-24T00:22:02;104.15;;;49.03;;
22851;SDS011;11592;45.460;9.240;2023-02-24T00:24:31;111.78;;;47.53;;
22851;SDS011;11592;45.460;9.240;2023-02-24T00:26:59;98.43;;;47.05;;
22851;SDS011;11592;45.460;9.240;2023-02-24T00:29:27;109.75;;;47.28;;
22851;SDS011;11592;45.460;9.240;2023-02-24T00:31:55;102.80;;;46.42;;
22851;SDS011;11592;45.460;9.240;2023-02-24T00:34:29;101.55;;;46.33;;
22851;SDS011;11592;45.460;9.240;2023-02-24T00:36:57;103.55;;;48.55;;
22851;SDS011;11592;45.460;9.240;2023-02-24T00:39:24;107.72;;;48.72;;
22851;SDS011;11592;45.460;9.240;2023-02-24T00:41:57;110.68;;;47.67;;
22851;SDS011;11592;45.460;9.240;2023-02-24T00:44:31;107.32;;;49.20;;
22851;SDS011;11592;45.460;9.240;2023-02-24T00:47:02;110.22;;;49.88;;
22851;SDS011;11592;45.460;9.240;2023-02-24T00:49:30;107.47;;;49.22;;
22851;SDS011;11592;45.460;9.240;2023-02-24T00:51:58;97.47;;;47.08;;
22851;SDS011;11592;45.460;9.240;2023-02-24T00:54:25;103.70;;;48.72;;
22851;SDS011;11592;45.460;9.240;2023-02-24T00:56:54;106.18;;;48.50;;
22851;SDS011;11592;45.460;9.240;2023-02-24T00:59:21;107.13;;;49.53;;
22851;SDS011;11592;45.460;9.240;2023-02-24T01:01:49;108.22;;;48.33;;
22851;SDS011;11592;45.460;9.240;2023-02-24T01:04:17;107.63;;;49.00;;
22851;SDS011;11592;45.460;9.240;2023-02-24T01:06:46;104.22;;;49.50;;
22851;SDS011;11592;45.460;9.240;2023-02-24T01:09:16;110.22;;;49.20;;
22851;SDS011;11592;45.460;9.240;2023-02-24T01:11:45;110.07;;;49.33;;
22851;SDS011;11592;45.460;9.240;2023-02-24T01:14:33;106.70;;;50.60;;
22851;SDS011;11592;45.460;9.240;2023-02-24T01:17:01;116.03;;;48.35;;
22851;SDS011;11592;45.460;9.240;2023-02-24T01:19:29;113.53;;;49.85;;
22851;SDS011;11592;45.460;9.240;2023-02-24T01:21:57;107.95;;;50.85;;
22851;SDS011;11592;45.460;9.240;2023-02-24T01:24:30;106.47;;;50.47;;
22851;SDS011;11592;45.460;9.240;2023-02-24T01:26:59;112.53;;;49.85;;
22851;SDS011;11592;45.460;9.240;2023-02-24T01:29:26;109.72;;;49.88;;
22851;SDS011;11592;45.460;9.240;2023-02-24T01:31:53;111.13;;;51.28;;
22851;SDS011;11592;45.460;9.240;2023-02-24T01:34:27;113.22;;;51.03;;
22851;SDS011;11592;45.460;9.240;2023-02-24T01:36:54;123.47;;;53.67;;
22851;SDS011;11592;45.460;9.240;2023-02-24T01:39:20;117.00;;;54.47;;
22851;SDS011;11592;45.460;9.240;2023-02-24T01:41:48;114.10;;;50.42;;
22851;SDS011;11592;45.460;9.240;2023-02-24T01:46:44;111.63;;;51.33;;
22851;SDS011;11592;45.460;9.240;2023-02-24T01:52:04;118.03;;;53.65;;
22851;SDS011;11592;45.460;9.240;2023-02-24T01:54:39;106.25;;;51.22;;
22851;SDS011;11592;45.460;9.240;2023-02-24T01:57:12;112.95;;;50.78;;
22851;SDS011;11592;45.460;9.240;2023-02-24T01:59:45;111.82;;;52.33;;
22851;SDS011;11592;45.460;9.240;2023-02-24T02:02:14;113.70;;;52.70;;
22851;SDS011;11592;45.460;9.240;2023-02-24T02:04:49;114.40;;;52.25;;
22851;SDS011;11592;45.460;9.240;2023-02-24T02:07:22;109.43;;;50.80;;
22851;SDS011;11592;45.460;9.240;2023-02-24T02:09:52;124.80;;;51.60;;
22851;SDS011;11592;45.460;9.240;2023-02-24T02:12:22;116.15;;;52.53;;
22851;SDS011;11592;45.460;9.240;2023-02-24T02:14:50;117.32;;;52.85;;
22851;SDS011;11592;45.460;9.240;2023-02-24T02:20:41;117.70;;;53.28;;
22851;SDS011;11592;45.460;9.240;2023-02-24T02:29:25;115.05;;;52.15;;
22851;SDS011;11592;45.460;9.240;2023-02-24T02:32:18;114.85;;;51.10;;
22851;SDS011;11592;45.460;9.240;2023-02-24T02:35:01;123.43;;;53.95;;
22851;SDS011;11592;45.460;9.240;2023-02-24T02:40:28;127.43;;;56.38;;
22851;SDS011;11592;45.460;9.240;2023-02-24T02:43:12;122.00;;;55.50;;
22851;SDS011;11592;45.460;9.240;2023-02-24T02:46:14;122.95;;;55.38;;
22851;SDS011;11592;45.460;9.240;2023-02-24T02:49:10;115.80;;;53.33;;
22851;SDS011;11592;45.460;9.240;2023-02-24T02:51:45;132.40;;;57.50;;
22851;SDS011;11592;45.460;9.240;2023-02-24T02:54:28;125.63;;;58.03;;
22851;SDS011;11592;45.460;9.240;2023-02-24T02:59:35;124.78;;;58.35;;
22851;SDS011;11592;45.460;9.240;2023-02-24T03:02:10;132.88;;;58.53;;
22851;SDS011;11592;45.460;9.240;2023-02-24T03:04:41;133.32;;;60.33;;
22851;SDS011;11592;45.460;9.240;2023-02-24T03:07:16;134.52;;;59.53;;
22851;SDS011;11592;45.460;9.240;2023-02-24T03:09:48;137.27;;;61.42;;
22851;SDS011;11592;45.460;9.240;2023-02-24T03:12:21;132.50;;;56.93;;
22851;SDS011;11592;45.460;9.240;2023-02-24T03:14:51;137.65;;;58.35;;
22851;SDS011;11592;45.460;9.240;2023-02-24T03:17:24;141.73;;;59.42;;
22851;SDS011;11592;45.460;9.240;2023-02-24T03:20:38;141.82;;;59.88;;
22851;SDS011;11592;45.460;9.240;2023-02-24T03:23:00;139.45;;;58.65;;
22851;SDS011;11592;45.460;9.240;2023-02-24T03:25:38;137.15;;;59.30;;
22851;SDS011;11592;45.460;9.240;2023-02-24T03:28:14;133.35;;;59.67;;
22851;SDS011;11592;45.460;9.240;2023-02-24T03:30:52;136.95;;;60.80;;
22851;SDS011;11592;45.460;9.240;2023-02-24T03:33:31;136.13;;;59.70;;
22851;SDS011;11592;45.460;9.240;2023-02-24T03:36:03;145.20;;;63.13;;
22851;SDS011;11592;45.460;9.240;2023-02-24T03:38:31;137.30;;;59.47;;
22851;SDS011;11592;45.460;9.240;2023-02-24T03:40:59;146.60;;;62.13;;
22851;SDS011;11592;45.460;9.240;2023-02-24T03:43:29;141.25;;;61.45;;
22851;SDS011;11592;45.460;9.240;2023-02-24T03:45:57;142.80;;;60.70;;
22851;SDS011;11592;45.460;9.240;2023-02-24T03:48:26;149.52;;;65.28;;
22851;SDS011;11592;45.460;9.240;2023-02-24T03:50:54;144.05;;;62.58;;
22851;SDS011;11592;45.460;9.240;2023-02-24T03:53:35;133.85;;;60.47;;
22851;SDS011;11592;45.460;9.240;2023-02-24T04:06:50;147.93;;;64.20;;
22851;SDS011;11592;45.460;9.240;2023-02-24T04:12:06;148.40;;;61.65;;
22851;SDS011;11592;45.460;9.240;2023-02-24T04:14:44;149.15;;;63.10;;
22851;SDS011;11592;45.460;9.240;2023-02-24T04:20:04;146.55;;;62.55;;
22851;SDS011;11592;45.460;9.240;2023-02-24T04:22:42;143.30;;;62.63;;
22851;SDS011;11592;45.460;9.240;2023-02-24T04:25:17;149.63;;;62.38;;
22851;SDS011;11592;45.460;9.240;2023-02-24T04:27:50;141.35;;;62.58;;
22851;SDS011;11592;45.460;9.240;2023-02-24T04:30:19;146.82;;;62.47;;
22851;SDS011;11592;45.460;9.240;2023-02-24T04:32:49;143.18;;;62.13;;
22851;SDS011;11592;45.460;9.240;2023-02-24T04:35:18;139.80;;;62.40;;
22851;SDS011;11592;45.460;9.240;2023-02-24T04:37:46;155.02;;;64.68;;
22851;SDS011;11592;45.460;9.240;2023-02-24T04:40:14;148.80;;;67.00;;
22851;SDS011;11592;45.460;9.240;2023-02-24T04:42:43;147.98;;;63.42;;
22851;SDS011;11592;45.460;9.240;2023-02-24T04:45:15;139.93;;;63.83;;
22851;SDS011;11592;45.460;9.240;2023-02-24T04:47:47;149.38;;;64.90;;
22851;SDS011;11592;45.460;9.240;2023-02-24T04:50:17;150.48;;;66.20;;
22851;SDS011;11592;45.460;9.240;2023-02-24T04:52:54;153.95;;;64.35;;
22851;SDS011;11592;45.460;9.240;2023-02-24T04:55:23;155.52;;;66.13;;
22851;SDS011;11592;45.460;9.240;2023-02-24T04:57:55;153.65;;;65.30;;
22851;SDS011;11592;45.460;9.240;2023-02-24T05:00:22;163.40;;;67.07;;
22851;SDS011;11592;45.460;9.240;2023-02-24T05:02:52;155.02;;;64.38;;
22851;SDS011;11592;45.460;9.240;2023-02-24T05:05:24;158.45;;;68.07;;
22851;SDS011;11592;45.460;9.240;2023-02-24T05:07:51;159.85;;;68.75;;
22851;SDS011;11592;45.460;9.240;2023-02-24T05:10:20;154.95;;;66.78;;
22851;SDS011;11592;45.460;9.240;2023-02-24T05:12:54;153.00;;;66.13;;
22851;SDS011;11592;45.460;9.240;2023-02-24T05:15:23;151.52;;;65.47;;
22851;SDS011;11592;45.460;9.240;2023-02-24T05:18:00;158.18;;;69.35;;
22851;SDS011;11592;45.460;9.240;2023-02-24T05:20:40;170.57;;;71.72;;
22851;SDS011;11592;45.460;9.240;2023-02-24T05:23:31;172.70;;;67.88;;
22851;SDS011;11592;45.460;9.240;2023-02-24T05:26:01;157.30;;;68.53;;
22851;SDS011;11592;45.460;9.240;2023-02-24T05:28:37;172.35;;;67.93;;
22851;SDS011;11592;45.460;9.240;2023-02-24T05:31:06;166.80;;;70.18;;
22851;SDS011;11592;45.460;9.240;2023-02-24T05:33:43;157.95;;;66.63;;
22851;SDS011;11592;45.460;9.240;2023-02-24T05:36:12;166.82;;;69.70;;
22851;SDS011;11592;45.460;9.240;2023-02-24T05:38:44;159.38;;;69.95;;
22851;SDS011;11592;45.460;9.240;2023-02-24T05:41:15;162.55;;;69.65;;
22851;SDS011;11592;45.460;9.240;2023-02-24T05:43:43;163.57;;;67.75;;
22851;SDS011;11592;45.460;9.240;2023-02-24T05:46:16;165.00;;;69.22;;
22851;SDS011;11592;45.460;9.240;2023-02-24T05:48:48;159.20;;;67.28;;
22851;SDS011;11592;45.460;9.240;2023-02-24T05:51:16;159.23;;;68.05;;
22851;SDS011;11592;45.460;9.240;2023-02-24T05:53:43;155.68;;;67.95;;
22851;SDS011;11592;45.460;9.240;2023-02-24T05:56:10;165.88;;;70.93;;
22851;SDS011;11592;45.460;9.240;2023-02-24T05:58:37;170.88;;;69.50;;
22851;SDS011;11592;45.460;9.240;2023-02-24T06:01:11;174.93;;;71.18;;
22851;SDS011;11592;45.460;9.240;2023-02-24T06:03:42;165.85;;;70.35;;
22851;SDS011;11592;45.460;9.240;2023-02-24T06:06:13;160.65;;;68.93;;
22851;SDS011;11592;45.460;9.240;2023-02-24T06:08:42;165.52;;;70.50;;
22851;SDS011;11592;45.460;9.240;2023-02-24T06:11:15;167.32;;;70.75;;
22851;SDS011;11592;45.460;9.240;2023-02-24T06:13:47;162.98;;;69.00;;
22851;SDS011;11592;45.460;9.240;2023-02-24T06:16:15;153.75;;;67.00;;
22851;SDS011;11592;45.460;9.240;2023-02-24T06:18:46;177.75;;;70.55;;
22851;SDS011;11592;45.460;9.240;2023-02-24T06:21:14;166.55;;;66.78;;
22851;SDS011;11592;45.460;9.240;2023-02-24T06:23:41;162.35;;;68.15;;
22851;SDS011;11592;45.460;9.240;2023-02-24T06:26:08;161.98;;;68.72;;
22851;SDS011;11592;45.460;9.240;2023-02-24T06:28:45;162.23;;;68.63;;
22851;SDS011;11592;45.460;9.240;2023-02-24T06:31:13;163.73;;;69.38;;
22851;SDS011;11592;45.460;9.240;2023-02-24T06:33:40;161.13;;;69.70;;
22851;SDS011;11592;45.460;9.240;2023-02-24T06:36:07;171.65;;;69.57;;
22851;SDS011;11592;45.460;9.240;2023-02-24T06:38:35;163.23;;;70.43;;
22851;SDS011;11592;45.460;9.240;2023-02-24T06:41:02;159.65;;;68.88;;
22851;SDS011;11592;45.460;9.240;2023-02-24T06:43:37;156.80;;;66.57;;
22851;SDS011;11592;45.460;9.240;2023-02-24T06:46:04;167.55;;;71.45;;
22851;SDS011;11592;45.460;9.240;2023-02-24T06:48:34;166.45;;;71.30;;
22851;SDS011;11592;45.460;9.240;2023-02-24T06:51:07;170.50;;;68.88;;
22851;SDS011;11592;45.460;9.240;2023-02-24T06:53:35;164.48;;;70.80;;
22851;SDS011;11592;45.460;9.240;2023-02-24T06:56:12;163.43;;;69.80;;
22851;SDS011;11592;45.460;9.240;2023-02-24T06:58:42;159.52;;;68.35;;
22851;SDS011;11592;45.460;9.240;2023-02-24T07:01:10;165.77;;;68.20;;
22851;SDS011;11592;45.460;9.240;2023-02-24T07:03:39;162.38;;;68.15;;
22851;SDS011;11592;45.460;9.240;2023-02-24T07:06:30;158.00;;;65.90;;
22851;SDS011;11592;45.460;9.240;2023-02-24T07:09:00;155.43;;;63.70;;
22851;SDS011;11592;45.460;9.240;2023-02-24T07:11:32;172.50;;;69.90;;
22851;SDS011;11592;45.460;9.240;2023-02-24T07:14:00;160.45;;;65.35;;
22851;SDS011;11592;45.460;9.240;2023-02-24T07:16:31;158.18;;;65.97;;
22851;SDS011;11592;45.460;9.240;2023-02-24T07:19:01;156.93;;;67.13;;
22851;SDS011;11592;45.460;9.240;2023-02-24T07:21:30;153.55;;;63.13;;
22851;SDS011;11592;45.460;9.240;2023-02-24T07:24:08;143.10;;;64.00;;
22851;SDS011;11592;45.460;9.240;2023-02-24T07:26:39;139.98;;;61.78;;
22851;SDS011;11592;45.460;9.240;2023-02-24T07:29:07;152.18;;;65.43;;
22851;SDS011;11592;45.460;9.240;2023-02-24T07:31:37;151.10;;;63.25;;
22851;SDS011;11592;45.460;9.240;2023-02-24T07:34:04;146.70;;;63.08;;
22851;SDS011;11592;45.460;9.240;2023-02-24T07:36:31;153.63;;;65.47;;
22851;SDS011;11592;45.460;9.240;2023-02-24T07:41:34;155.00;;;63.60;;
22851;SDS011;11592;45.460;9.240;2023-02-24T07:44:02;158.68;;;66.22;;
22851;SDS011;11592;45.460;9.240;2023-02-24T07:46:30;150.75;;;65.30;;
22851;SDS011;11592;45.460;9.240;2023-02-24T07:48:58;155.77;;;66.50;;
22851;SDS011;11592;45.460;9.240;2023-02-24T07:51:25;154.77;;;65.38;;
22851;SDS011;11592;45.460;9.240;2023-02-24T07:53:54;155.20;;;67.00;;
22851;SDS011;11592;45.460;9.240;2023-02-24T07:56:25;146.98;;;64.35;;
22851;SDS011;11592;45.460;9.240;2023-02-24T07:58:59;140.93;;;61.33;;
22851;SDS011;11592;45.460;9.240;2023-02-24T08:01:29;147.60;;;61.22;;
22851;SDS011;11592;45.460;9.240;2023-02-24T08:04:05;144.02;;;63.80;;
22851;SDS011;11592;45.460;9.240;2023-02-24T08:06:35;144.90;;;61.75;;
22851;SDS011;11592;45.460;9.240;2023-02-24T08:09:04;145.50;;;66.80;;
22851;SDS011;11592;45.460;9.240;2023-02-24T08:11:55;146.73;;;62.55;;
22851;SDS011;11592;45.460;9.240;2023-02-24T08:14:26;148.95;;;61.67;;
22851;SDS011;11592;45.460;9.240;2023-02-24T08:16:58;155.52;;;64.05;;
22851;SDS011;11592;45.460;9.240;2023-02-24T08:19:25;149.77;;;65.45;;
22851;SDS011;11592;45.460;9.240;2023-02-24T08:21:59;151.57;;;65.57;;
22851;SDS011;11592;45.460;9.240;2023-02-24T08:27:18;152.00;;;66.60;;
22851;SDS011;11592;45.460;9.240;2023-02-24T08:29:51;149.48;;;65.82;;
22851;SDS011;11592;45.460;9.240;2023-02-24T08:32:38;161.88;;;69.15;;
22851;SDS011;11592;45.460;9.240;2023-02-24T08:35:11;156.02;;;67.57;;
22851;SDS011;11592;45.460;9.240;2023-02-24T08:37:44;151.65;;;66.75;;
22851;SDS011;11592;45.460;9.240;2023-02-24T08:40:14;147.18;;;63.92;;
22851;SDS011;11592;45.460;9.240;2023-02-24T08:43:07;147.98;;;63.95;;
22851;SDS011;11592;45.460;9.240;2023-02-24T08:45:48;159.82;;;66.93;;
22851;SDS011;11592;45.460;9.240;2023-02-24T08:48:23;156.73;;;65.22;;
22851;SDS011;11592;45.460;9.240;2023-02-24T08:50:59;153.68;;;68.47;;
22851;SDS011;11592;45.460;9.240;2023-02-24T08:53:29;151.93;;;66.53;;
22851;SDS011;11592;45.460;9.240;2023-02-24T08:56:00;162.55;;;68.85;;
22851;SDS011;11592;45.460;9.240;2023-02-24T09:01:10;151.88;;;64.43;;
22851;SDS011;11592;45.460;9.240;2023-02-24T09:03:46;150.93;;;66.25;;
22851;SDS011;11592;45.460;9.240;2023-02-24T09:06:16;144.60;;;64.70;;
22851;SDS011;11592;45.460;9.240;2023-02-24T09:11:42;136.95;;;59.90;;
22851;SDS011;11592;45.460;9.240;2023-02-24T09:14:16;143.93;;;61.83;;
22851;SDS011;11592;45.460;9.240;2023-02-24T09:16:53;136.50;;;60.95;;
22851;SDS011;11592;45.460;9.240;2023-02-24T09:19:41;132.35;;;59.22;;
22851;SDS011;11592;45.460;9.240;2023-02-24T09:22:13;140.38;;;61.13;;
22851;SDS011;11592;45.460;9.240;2023-02-24T09:25:09;138.35;;;61.92;;
22851;SDS011;11592;45.460;9.240;2023-02-24T09:30:36;140.93;;;63.97;;
22851;SDS011;11592;45.460;9.240;2023-02-24T09:33:17;140.70;;;61.78;;
22851;SDS011;11592;45.460;9.240;2023-02-24T09:49:52;141.73;;;62.90;;
22851;SDS011;11592;45.460;9.240;2023-02-24T09:52:28;139.43;;;59.03;;
22851;SDS011;11592;45.460;9.240;2023-02-24T09:55:18;135.13;;;58.47;;
22851;SDS011;11592;45.460;9.240;2023-02-24T10:00:49;122.05;;;56.85;;
22851;SDS011;11592;45.460;9.240;2023-02-24T10:03:55;128.65;;;57.65;;
22851;SDS011;11592;45.460;9.240;2023-02-24T10:06:57;133.63;;;57.10;;
22851;SDS011;11592;45.460;9.240;2023-02-24T10:09:34;127.78;;;57.22;;
22851;SDS011;11592;45.460;9.240;2023-02-24T10:12:18;129.57;;;58.30;;
22851;SDS011;11592;45.460;9.240;2023-02-24T10:17:42;123.70;;;57.15;;
22851;SDS011;11592;45.460;9.240;2023-02-24T10:20:33;122.63;;;55.70;;
22851;SDS011;11592;45.460;9.240;2023-02-24T10:23:08;125.03;;;59.80;;
22851;SDS011;11592;45.460;9.240;2023-02-24T10:25:56;132.63;;;59.05;;
22851;SDS011;11592;45.460;9.240;2023-02-24T10:28:49;128.27;;;57.55;;
22851;SDS011;11592;45.460;9.240;2023-02-24T10:31:33;130.70;;;58.00;;
22851;SDS011;11592;45.460;9.240;2023-02-24T10:34:15;123.57;;;57.63;;
22851;SDS011;11592;45.460;9.240;2023-02-24T10:36:51;122.03;;;57.70;;
22851;SDS011;11592;45.460;9.240;2023-02-24T10:41:51;120.22;;;56.30;;
22851;SDS011;11592;45.460;9.240;2023-02-24T10:44:24;121.05;;;56.45;;
22851;SDS011;11592;45.460;9.240;2023-02-24T10:47:02;118.10;;;54.90;;
22851;SDS011;11592;45.460;9.240;2023-02-24T10:49:42;113.05;;;54.38;;
22851;SDS011;11592;45.460;9.240;2023-02-24T10:52:25;111.13;;;54.33;;
22851;SDS011;11592;45.460;9.240;2023-02-24T10:55:19;110.10;;;53.60;;
22851;SDS011;11592;45.460;9.240;2023-02-24T10:58:05;113.63;;;55.58;;
22851;SDS011;11592;45.460;9.240;2023-02-24T11:00:54;112.43;;;55.72;;
22851;SDS011;11592;45.460;9.240;2023-02-24T11:03:47;113.43;;;56.25;;
22851;SDS011;11592;45.460;9.240;2023-02-24T11:06:28;117.45;;;57.25;;
22851;SDS011;11592;45.460;9.240;2023-02-24T11:09:12;115.70;;;56.38;;
22851;SDS011;11592;45.460;9.240;2023-02-24T11:14:51;120.10;;;58.60;;
22851;SDS011;11592;45.460;9.240;2023-02-24T11:17:49;122.88;;;58.75;;
22851;SDS011;11592;45.460;9.240;2023-02-24T11:20:39;118.63;;;57.88;;
22851;SDS011;11592;45.460;9.240;2023-02-24T11:23:16;115.88;;;57.35;;
22851;SDS011;11592;45.460;9.240;2023-02-24T11:25:52;113.35;;;53.45;;
22851;SDS011;11592;45.460;9.240;2023-02-24T11:28:36;109.53;;;54.92;;
22851;SDS011;11592;45.460;9.240;2023-02-24T11:34:32;116.50;;;54.33;;
22851;SDS011;11592;45.460;9.240;2023-02-24T11:39:57;108.05;;;52.42;;
22851;SDS011;11592;45.460;9.240;2023-02-24T11:45:40;111.95;;;53.72;;
22851;SDS011;11592;45.460;9.240;2023-02-24T11:48:18;104.82;;;52.90;;
22851;SDS011;11592;45.460;9.240;2023-02-24T11:50:50;118.80;;;56.22;;
22851;SDS011;11592;45.460;9.240;2023-02-24T12:06:18;109.32;;;53.78;;
22851;SDS011;11592;45.460;9.240;2023-02-24T12:08:53;102.60;;;53.28;;
22851;SDS011;11592;45.460;9.240;2023-02-24T12:11:32;103.10;;;53.53;;
22851;SDS011;11592;45.460;9.240;2023-02-24T12:16:41;103.88;;;53.92;;
22851;SDS011;11592;45.460;9.240;2023-02-24T12:19:16;103.00;;;52.58;;
22851;SDS011;11592;45.460;9.240;2023-02-24T12:21:54;101.65;;;53.30;;
22851;SDS011;11592;45.460;9.240;2023-02-24T12:24:28;111.30;;;52.67;;
22851;SDS011;11592;45.460;9.240;2023-02-24T12:26:59;102.22;;;52.65;;
22851;SDS011;11592;45.460;9.240;2023-02-24T12:37:44;101.85;;;50.03;;
22851;SDS011;11592;45.460;9.240;2023-02-24T12:40:23;102.90;;;51.25;;
22851;SDS011;11592;45.460;9.240;2023-02-24T12:51:48;95.50;;;47.13;;
22851;SDS011;11592;45.460;9.240;2023-02-24T12:54:31;97.10;;;46.88;;
22851;SDS011;11592;45.460;9.240;2023-02-24T12:57:26;98.15;;;47.58;;
22851;SDS011;11592;45.460;9.240;2023-02-24T13:00:16;99.82;;;48.80;;
22851;SDS011;11592;45.460;9.240;2023-02-24T13:08:22;96.10;;;47.75;;
22851;SDS011;11592;45.460;9.240;2023-02-24T13:11:06;95.90;;;47.40;;
22851;SDS011;11592;45.460;9.240;2023-02-24T13:13:50;93.82;;;46.63;;
22851;SDS011;11592;45.460;9.240;2023-02-24T13:16:28;99.78;;;48.20;;
22851;SDS011;11592;45.460;9.240;2023-02-24T13:19:14;93.40;;;47.20;;
22851;SDS011;11592;45.460;9.240;2023-02-24T13:22:04;94.10;;;46.22;;
22851;SDS011;11592;45.460;9.240;2023-02-24T13:24:32;94.13;;;46.63;;
22851;SDS011;11592;45.460;9.240;2023-02-24T13:29:53;95.22;;;46.75;;
22851;SDS011;11592;45.460;9.240;2023-02-24T13:32:30;98.13;;;46.17;;
22851;SDS011;11592;45.460;9.240;2023-02-24T13:35:04;84.85;;;44.65;;
22851;SDS011;11592;45.460;9.240;2023-02-24T13:37:36;97.40;;;47.05;;
22851;SDS011;11592;45.460;9.240;2023-02-24T13:42:43;99.13;;;45.42;;
22851;SDS011;11592;45.460;9.240;2023-02-24T13:45:22;95.05;;;45.20;;
22851;SDS011;11592;45.460;9.240;2023-02-24T13:53:41;94.82;;;45.17;;
22851;SDS011;11592;45.460;9.240;2023-02-24T14:04:37;98.03;;;46.80;;
22851;SDS011;11592;45.460;9.240;2023-02-24T14:07:21;86.20;;;42.58;;
22851;SDS011;11592;45.460;9.240;2023-02-24T14:10:43;91.30;;;44.78;;
22851;SDS011;11592;45.460;9.240;2023-02-24T14:13:01;101.28;;;45.22;;
22851;SDS011;11592;45.460;9.240;2023-02-24T14:15:30;93.20;;;44.47;;
22851;SDS011;11592;45.460;9.240;2023-02-24T14:18:03;84.95;;;43.00;;
22851;SDS011;11592;45.460;9.240;2023-02-24T14:20:33;90.28;;;45.10;;
22851;SDS011;11592;45.460;9.240;2023-02-24T14:23:13;96.18;;;46.80;;
22851;SDS011;11592;45.460;9.240;2023-02-24T14:25:45;84.90;;;42.28;;
22851;SDS011;11592;45.460;9.240;2023-02-24T14:28:13;91.43;;;41.75;;
22851;SDS011;11592;45.460;9.240;2023-02-24T14:30:49;89.88;;;41.58;;
22851;SDS011;11592;45.460;9.240;2023-02-24T14:33:39;87.65;;;41.75;;
22851;SDS011;11592;45.460;9.240;2023-02-24T14:36:15;81.10;;;41.30;;
22851;SDS011;11592;45.460;9.240;2023-02-24T14:38:45;80.88;;;40.85;;
22851;SDS011;11592;45.460;9.240;2023-02-24T14:41:18;91.88;;;41.35;;
22851;SDS011;11592;45.460;9.240;2023-02-24T14:43:47;78.77;;;39.53;;
22851;SDS011;11592;45.460;9.240;2023-02-24T14:46:14;83.25;;;41.28;;
22851;SDS011;11592;45.460;9.240;2023-02-24T14:48:42;90.20;;;43.33;;
22851;SDS011;11592;45.460;9.240;2023-02-24T14:53:52;97.43;;;46.47;;
22851;SDS011;11592;45.460;9.240;2023-02-24T14:56:22;97.18;;;46.38;;
22851;SDS011;11592;45.460;9.240;2023-02-24T14:59:01;89.15;;;44.38;;
22851;SDS011;11592;45.460;9.240;2023-02-24T15:01:42;92.32;;;46.03;;
22851;SDS011;11592;45.460;9.240;2023-02-24T15:04:14;94.82;;;45.53;;
22851;SDS011;11592;45.460;9.240;2023-02-24T15:07:00;96.57;;;46.53;;
22851;SDS011;11592;45.460;9.240;2023-02-24T15:09:34;86.82;;;43.92;;
22851;SDS011;11592;45.460;9.240;2023-02-24T15:12:07;96.32;;;45.92;;
22851;SDS011;11592;45.460;9.240;2023-02-24T15:14:37;90.35;;;45.33;;
22851;SDS011;11592;45.460;9.240;2023-02-24T15:17:09;94.68;;;45.50;;
22851;SDS011;11592;45.460;9.240;2023-02-24T15:19:42;90.90;;;46.85;;
22851;SDS011;11592;45.460;9.240;2023-02-24T15:22:18;94.18;;;45.92;;
22851;SDS011;11592;45.460;9.240;2023-02-24T15:24:47;99.47;;;45.78;;
22851;SDS011;11592;45.460;9.240;2023-02-24T15:29:42;94.88;;;46.33;;
22851;SDS011;11592;45.460;9.240;2023-02-24T15:32:22;95.43;;;45.17;;
22851;SDS011;11592;45.460;9.240;2023-02-24T15:34:51;94.75;;;45.25;;
22851;SDS011;11592;45.460;9.240;2023-02-24T15:37:25;97.72;;;46.13;;
22851;SDS011;11592;45.460;9.240;2023-02-24T15:40:17;91.85;;;45.28;;
22851;SDS011;11592;45.460;9.240;2023-02-24T15:42:50;94.70;;;45.80;;
22851;SDS011;11592;45.460;9.240;2023-02-24T15:45:35;95.88;;;45.70;;
22851;SDS011;11592;45.460;9.240;2023-02-24T15:48:19;101.75;;;46.33;;
22851;SDS011;11592;45.460;9.240;2023-02-24T15:50:48;99.90;;;45.08;;
22851;SDS011;11592;45.460;9.240;2023-02-24T15:53:17;90.15;;;43.90;;
22851;SDS011;11592;45.460;9.240;2023-02-24T15:55:44;92.68;;;43.15;;
22851;SDS011;11592;45.460;9.240;2023-02-24T15:58:15;74.40;;;38.42;;
22851;SDS011;11592;45.460;9.240;2023-02-24T16:00:43;80.30;;;37.38;;
22851;SDS011;11592;45.460;9.240;2023-02-24T16:03:11;66.40;;;33.58;;
22851;SDS011;11592;45.460;9.240;2023-02-24T16:05:38;73.97;;;36.15;;
22851;SDS011;11592;45.460;9.240;2023-02-24T16:08:07;70.82;;;33.83;;
22851;SDS011;11592;45.460;9.240;2023-02-24T16:10:38;71.55;;;33.15;;
22851;SDS011;11592;45.460;9.240;2023-02-24T16:13:05;73.13;;;34.30;;
22851;SDS011;11592;45.460;9.240;2023-02-24T16:15:41;72.25;;;33.40;;
22851;SDS011;11592;45.460;9.240;2023-02-24T16:18:15;74.60;;;35.35;;
22851;SDS011;11592;45.460;9.240;2023-02-24T16:20:47;75.10;;;35.45;;
22851;SDS011;11592;45.460;9.240;2023-02-24T16:23:23;79.75;;;35.75;;
22851;SDS011;11592;45.460;9.240;2023-02-24T16:25:53;70.22;;;34.40;;
22851;SDS011;11592;45.460;9.240;2023-02-24T16:28:23;81.85;;;35.35;;
22851;SDS011;11592;45.460;9.240;2023-02-24T16:30:50;69.88;;;34.22;;
22851;SDS011;11592;45.460;9.240;2023-02-24T16:33:18;79.40;;;35.55;;
22851;SDS011;11592;45.460;9.240;2023-02-24T16:35:49;80.15;;;35.15;;
22851;SDS011;11592;45.460;9.240;2023-02-24T16:38:18;79.00;;;34.70;;
22851;SDS011;11592;45.460;9.240;2023-02-24T16:40:48;75.45;;;34.55;;
22851;SDS011;11592;45.460;9.240;2023-02-24T16:43:15;71.93;;;35.00;;
22851;SDS011;11592;45.460;9.240;2023-02-24T16:45:42;72.80;;;35.15;;
22851;SDS011;11592;45.460;9.240;2023-02-24T16:48:20;79.25;;;36.40;;
22851;SDS011;11592;45.460;9.240;2023-02-24T16:50:50;76.00;;;35.38;;
22851;SDS011;11592;45.460;9.240;2023-02-24T16:53:18;80.35;;;37.28;;
22851;SDS011;11592;45.460;9.240;2023-02-24T16:55:46;84.10;;;38.40;;
22851;SDS011;11592;45.460;9.240;2023-02-24T16:58:13;79.00;;;37.03;;
22851;SDS011;11592;45.460;9.240;2023-02-24T17:00:40;78.25;;;37.65;;
22851;SDS011;11592;45.460;9.240;2023-02-24T17:03:15;79.82;;;38.60;;
22851;SDS011;11592;45.460;9.240;2023-02-24T17:05:46;79.05;;;39.60;;
22851;SDS011;11592;45.460;9.240;2023-02-24T17:08:13;86.47;;;39.28;;
22851;SDS011;11592;45.460;9.240;2023-02-24T17:10:40;87.60;;;39.83;;
22851;SDS011;11592;45.460;9.240;2023-02-24T17:13:12;82.72;;;38.83;;
22851;SDS011;11592;45.460;9.240;2023-02-24T17:15:40;83.38;;;37.30;;
22851;SDS011;11592;45.460;9.240;2023-02-24T17:18:07;84.00;;;40.80;;
22851;SDS011;11592;45.460;9.240;2023-02-24T17:20:34;90.68;;;41.63;;